createdAt,value
2018-06-08T00:04:25.897Z,30.13
2018-06-08T00:06:57.529Z,27.23
2018-06-08T00:09:30.514Z,28.70
2018-06-08T00:12:03.698Z,27.80
2018-06-08T00:14:36.781Z,26.13
2018-06-08T00:17:10.007Z,26.10
2018-06-08T00:19:43.088Z,26.57
2018-06-08T00:22:16.096Z,25.40
2018-06-08T00:24:49.223Z,26.87
2018-06-08T00:27:22.236Z,27.23
2018-06-08T00:29:55.308Z,25.70
2018-06-08T00:32:28.400Z,26.30
2018-06-08T00:35:02.422Z,28.20
2018-06-08T00:37:35.693Z,29.67
2018-06-08T00:40:08.811Z,31.57
2018-06-08T00:42:41.880Z,29.90
2018-06-08T00:45:15.099Z,29.90
2018-06-08T00:47:48.221Z,28.90
2018-06-08T00:50:21.277Z,28.90
2018-06-08T00:52:54.360Z,31.10
2018-06-08T00:55:27.579Z,30.40
2018-06-08T00:58:00.686Z,33.27
2018-06-08T01:00:33.851Z,32.23
2018-06-08T01:03:06.948Z,33.63
2018-06-08T01:05:40.029Z,37.77
2018-06-08T01:08:13.125Z,35.07
2018-06-08T01:10:46.225Z,35.40
2018-06-08T01:13:19.314Z,36.53
2018-06-08T01:15:52.381Z,36.30
2018-06-08T01:18:25.516Z,35.73
2018-06-08T01:20:58.599Z,34.27
2018-06-08T01:23:31.684Z,36.13
2018-06-08T01:26:04.724Z,35.00
2018-06-08T01:28:37.778Z,33.47
2018-06-08T01:31:10.819Z,32.90
2018-06-08T01:33:42.435Z,33.53
2018-06-08T01:36:15.503Z,33.07
2018-06-08T01:38:48.542Z,32.60
2018-06-08T01:41:21.600Z,30.70
2018-06-08T01:43:54.795Z,33.57
2018-06-08T01:46:27.928Z,34.73
2018-06-08T01:49:02.036Z,35.20
2018-06-08T01:51:33.805Z,36.07
2018-06-08T01:54:06.917Z,38.70
2018-06-08T01:56:40.002Z,39.23
2018-06-08T01:59:13.235Z,39.30
2018-06-08T02:01:46.361Z,39.43
2018-06-08T02:04:17.983Z,35.37
2018-06-08T02:06:51.064Z,36.33
2018-06-08T02:09:24.188Z,34.30
2018-06-08T02:11:57.286Z,32.90
2018-06-08T02:14:30.389Z,32.80
2018-06-08T02:17:03.673Z,31.10
2018-06-08T02:19:38.636Z,31.40
2018-06-08T02:22:11.700Z,32.17
2018-06-08T02:24:44.836Z,31.27
2018-06-08T02:27:18.098Z,31.40
2018-06-08T02:29:51.161Z,31.53
2018-06-08T02:32:24.256Z,30.43
2018-06-08T02:34:57.371Z,32.27
2018-06-08T02:37:31.357Z,33.20
2018-06-08T02:40:04.390Z,31.67
2018-06-08T02:42:37.450Z,35.53
2018-06-08T02:45:12.761Z,35.07
2018-06-08T02:47:44.416Z,37.60
2018-06-08T02:50:17.428Z,34.27
2018-06-08T02:52:50.729Z,37.73
2018-06-08T02:55:24.050Z,36.87
2018-06-08T02:57:57.292Z,34.00
2018-06-08T03:00:30.456Z,33.77
2018-06-08T03:03:03.603Z,34.40
2018-06-08T03:05:36.846Z,34.40
2018-06-08T03:08:09.982Z,35.77
2018-06-08T03:10:43.095Z,36.50
2018-06-08T03:13:17.087Z,39.07
2018-06-08T03:15:50.506Z,26.20
2018-06-08T03:18:23.871Z,21.40
2018-06-08T03:20:57.109Z,20.37
2018-06-08T03:23:30.200Z,21.17
2018-06-08T03:26:03.311Z,19.20
2018-06-08T03:28:36.386Z,12.90
2018-06-08T03:31:09.419Z,13.13
2018-06-08T03:33:42.555Z,16.43
2018-06-08T03:36:16.695Z,16.00
2018-06-08T03:38:50.958Z,16.47
2018-06-08T03:41:25.411Z,16.53
2018-06-08T03:43:59.590Z,17.60
2018-06-08T03:46:37.140Z,18.50
2018-06-08T03:49:21.275Z,18.50
2018-06-08T03:51:54.741Z,18.67
2018-06-08T03:54:27.923Z,16.30
2018-06-08T03:57:01.906Z,19.33
2018-06-08T03:59:36.400Z,17.80
2018-06-08T04:02:09.725Z,17.70
2018-06-08T04:04:42.968Z,17.00
2018-06-08T04:07:16.226Z,17.23
2018-06-08T04:09:49.587Z,17.60
2018-06-08T04:12:21.456Z,20.70
2018-06-08T04:14:54.740Z,21.47
2018-06-08T04:20:21.065Z,17.63
2018-06-08T04:23:02.115Z,14.73
2018-06-08T04:25:39.805Z,16.07
2018-06-08T04:28:19.906Z,11.70
2018-06-08T04:30:59.697Z,8.40
2018-06-08T04:36:26.808Z,8.03
2018-06-08T04:39:06.221Z,8.20
2018-06-08T04:41:40.639Z,7.60
2018-06-08T04:44:23.302Z,7.27
2018-06-08T04:49:59.871Z,9.90
2018-06-08T04:52:33.552Z,14.00
2018-06-08T04:55:09.146Z,15.40
2018-06-08T04:57:43.708Z,14.70
2018-06-08T05:00:21.339Z,15.97
2018-06-08T05:02:55.417Z,13.43
2018-06-08T05:05:32.055Z,13.53
2018-06-08T05:32:55.099Z,15.77
2018-06-08T05:36:01.874Z,16.30
2018-06-08T05:38:41.682Z,16.27
2018-06-08T05:41:15.167Z,14.40
2018-06-08T05:43:48.444Z,16.40
2018-06-08T05:46:21.961Z,15.37
2018-06-08T05:48:53.938Z,15.90
2018-06-08T05:51:27.766Z,14.10
2018-06-08T05:54:01.162Z,14.77
2018-06-08T05:56:36.395Z,12.60
2018-06-08T05:59:15.007Z,13.20
2018-06-08T06:01:51.588Z,14.50
2018-06-08T06:04:37.217Z,13.83
2018-06-08T06:07:19.651Z,12.90
2018-06-08T06:26:10.467Z,11.73
2018-06-08T06:40:37.554Z,13.03
2018-06-08T08:11:50.233Z,10.17
2018-06-08T08:22:32.596Z,10.70
2018-06-08T08:25:11.016Z,13.63
2018-06-08T08:27:44.612Z,14.67
2018-06-08T08:30:17.968Z,14.60
2018-06-08T08:32:51.218Z,13.70
2018-06-08T08:35:25.821Z,13.00
2018-06-08T08:37:59.191Z,13.20
2018-06-08T08:40:32.657Z,13.10
2018-06-08T08:43:06.083Z,14.40
2018-06-08T08:45:39.535Z,12.87
2018-06-08T08:48:12.927Z,13.30
2018-06-08T08:50:58.018Z,13.60
2018-06-08T08:58:35.862Z,13.27
2018-06-08T09:01:25.720Z,11.63
2018-06-08T09:04:07.382Z,11.07
2018-06-08T09:06:59.837Z,9.47
2018-06-08T09:09:45.246Z,9.83
2018-06-08T09:12:28.716Z,9.60
2018-06-08T09:21:42.455Z,9.20
2018-06-08T09:24:50.563Z,8.17
2018-06-08T09:28:19.479Z,8.53
2018-06-08T09:31:10.758Z,8.70
2018-06-08T09:33:44.570Z,8.97
2018-06-08T09:36:19.108Z,8.80
2018-06-08T09:45:03.655Z,9.47
2018-06-08T09:47:37.032Z,8.80
2018-06-08T09:50:28.108Z,8.70
2018-06-08T09:53:25.938Z,8.43
2018-06-08T09:56:18.287Z,9.00
2018-06-08T09:58:56.257Z,8.13
2018-06-08T10:05:11.076Z,8.17
